sensor_id;sensor_type;location;lat;lon;timestamp;temperature;humidity
62904;DHT22;49000;50.698;13.322;2022-07-10T00:01:44;12.90;99.90
62904;DHT22;49000;50.698;13.322;2022-07-10T00:04:09;12.90;99.90
62904;DHT22;49000;50.698;13.322;2022-07-10T00:06:35;12.80;99.90
62904;DHT22;49000;50.698;13.322;2022-07-10T00:09:00;12.80;99.90
62904;DHT22;49000;50.698;13.322;2022-07-10T00:11:26;12.70;99.90
62904;DHT22;49000;50.698;13.322;2022-07-10T00:13:51;12.70;99.90
62904;DHT22;49000;50.698;13.322;2022-07-10T00:16:17;12.70;99.90
62904;DHT22;49000;50.698;13.322;2022-07-10T00:18:42;12.60;99.90
62904;DHT22;49000;50.698;13.322;2022-07-10T00:21:07;12.50;99.90
62904;DHT22;49000;50.698;13.322;2022-07-10T00:23:33;12.50;99.90
62904;DHT22;49000;50.698;13.322;2022-07-10T00:25:58;12.40;99.90
62904;DHT22;49000;50.698;13.322;2022-07-10T00:28:24;12.50;99.90
62904;DHT22;49000;50.698;13.322;2022-07-10T00:30:50;12.50;99.90
62904;DHT22;49000;50.698;13.322;2022-07-10T00:33:15;12.50;99.90
62904;DHT22;49000;50.698;13.322;2022-07-10T00:35:40;12.40;99.90
62904;DHT22;49000;50.698;13.322;2022-07-10T00:38:06;12.50;99.90
62904;DHT22;49000;50.698;13.322;2022-07-10T00:40:32;12.50;99.90
62904;DHT22;49000;50.698;13.322;2022-07-10T00:42:57;12.50;99.90
62904;DHT22;49000;50.698;13.322;2022-07-10T00:45:23;12.40;99.90
62904;DHT22;49000;50.698;13.322;2022-07-10T00:47:48;12.40;99.90
62904;DHT22;49000;50.698;13.322;2022-07-10T00:50:14;12.40;99.90
62904;DHT22;49000;50.698;13.322;2022-07-10T00:52:40;12.20;99.90
62904;DHT22;49000;50.698;13.322;2022-07-10T00:55:07;12.20;99.90
62904;DHT22;49000;50.698;13.322;2022-07-10T00:57:35;12.10;99.90
62904;DHT22;49000;50.698;13.322;2022-07-10T01:00:02;11.90;99.90
62904;DHT22;49000;50.698;13.322;2022-07-10T01:02:27;12.00;99.90
62904;DHT22;49000;50.698;13.322;2022-07-10T01:04:56;12.10;99.90
62904;DHT22;49000;50.698;13.322;2022-07-10T01:07:21;11.90;99.90
62904;DHT22;49000;50.698;13.322;2022-07-10T01:09:47;12.00;99.90
62904;DHT22;49000;50.698;13.322;2022-07-10T01:12:12;12.10;99.90
62904;DHT22;49000;50.698;13.322;2022-07-10T01:14:39;11.90;99.90
62904;DHT22;49000;50.698;13.322;2022-07-10T01:17:06;11.90;99.90
62904;DHT22;49000;50.698;13.322;2022-07-10T01:19:31;11.80;99.90
62904;DHT22;49000;50.698;13.322;2022-07-10T01:21:57;11.60;99.90
62904;DHT22;49000;50.698;13.322;2022-07-10T01:24:22;11.60;99.90
62904;DHT22;49000;50.698;13.322;2022-07-10T01:26:48;11.60;99.90
62904;DHT22;49000;50.698;13.322;2022-07-10T01:29:13;11.60;99.90
62904;DHT22;49000;50.698;13.322;2022-07-10T01:31:39;11.70;99.90
62904;DHT22;49000;50.698;13.322;2022-07-10T01:34:07;11.70;99.90
62904;DHT22;49000;50.698;13.322;2022-07-10T01:36:36;11.70;99.90
62904;DHT22;49000;50.698;13.322;2022-07-10T01:39:02;11.60;99.90
62904;DHT22;49000;50.698;13.322;2022-07-10T01:41:28;11.50;99.90
62904;DHT22;49000;50.698;13.322;2022-07-10T01:43:53;11.60;99.90
62904;DHT22;49000;50.698;13.322;2022-07-10T01:46:19;11.70;99.90
62904;DHT22;49000;50.698;13.322;2022-07-10T01:48:45;11.70;99.90
62904;DHT22;49000;50.698;13.322;2022-07-10T01:51:11;11.60;99.90
62904;DHT22;49000;50.698;13.322;2022-07-10T01:53:38;11.60;99.90
62904;DHT22;49000;50.698;13.322;2022-07-10T01:56:06;11.50;99.90
62904;DHT22;49000;50.698;13.322;2022-07-10T01:58:32;11.50;99.90
62904;DHT22;49000;50.698;13.322;2022-07-10T02:00:58;11.30;99.90
62904;DHT22;49000;50.698;13.322;2022-07-10T02:03:23;11.30;99.90
62904;DHT22;49000;50.698;13.322;2022-07-10T02:06:08;11.20;99.90
62904;DHT22;49000;50.698;13.322;2022-07-10T02:08:33;11.20;99.90
62904;DHT22;49000;50.698;13.322;2022-07-10T02:10:59;11.10;99.90
62904;DHT22;49000;50.698;13.322;2022-07-10T02:13:25;11.10;99.90
62904;DHT22;49000;50.698;13.322;2022-07-10T02:15:53;11.00;99.90
62904;DHT22;49000;50.698;13.322;2022-07-10T02:18:19;11.00;99.90
62904;DHT22;49000;50.698;13.322;2022-07-10T02:20:45;11.00;99.90
62904;DHT22;49000;50.698;13.322;2022-07-10T02:23:10;11.00;99.90
62904;DHT22;49000;50.698;13.322;2022-07-10T02:25:36;10.90;99.90
62904;DHT22;49000;50.698;13.322;2022-07-10T02:28:01;11.00;99.90
62904;DHT22;49000;50.698;13.322;2022-07-10T02:30:27;10.90;99.90
62904;DHT22;49000;50.698;13.322;2022-07-10T02:32:52;10.90;99.90
62904;DHT22;49000;50.698;13.322;2022-07-10T02:35:18;10.80;99.90
62904;DHT22;49000;50.698;13.322;2022-07-10T02:37:44;10.90;99.90
62904;DHT22;49000;50.698;13.322;2022-07-10T02:40:09;11.00;99.90
62904;DHT22;49000;50.698;13.322;2022-07-10T02:42:35;11.00;99.90
62904;DHT22;49000;50.698;13.322;2022-07-10T02:45:00;11.00;99.90
62904;DHT22;49000;50.698;13.322;2022-07-10T02:47:26;11.00;99.90
62904;DHT22;49000;50.698;13.322;2022-07-10T02:49:51;10.90;99.90
62904;DHT22;49000;50.698;13.322;2022-07-10T02:52:17;10.90;99.90
62904;DHT22;49000;50.698;13.322;2022-07-10T02:54:42;10.90;99.90
62904;DHT22;49000;50.698;13.322;2022-07-10T02:57:08;10.90;99.90
62904;DHT22;49000;50.698;13.322;2022-07-10T02:59:33;10.90;99.90
62904;DHT22;49000;50.698;13.322;2022-07-10T03:01:59;11.00;99.90
62904;DHT22;49000;50.698;13.322;2022-07-10T03:04:26;10.90;99.90
62904;DHT22;49000;50.698;13.322;2022-07-10T03:06:51;10.80;99.90
62904;DHT22;49000;50.698;13.322;2022-07-10T03:09:17;10.90;99.90
62904;DHT22;49000;50.698;13.322;2022-07-10T03:11:42;11.00;99.90
62904;DHT22;49000;50.698;13.322;2022-07-10T03:14:08;10.90;99.90
62904;DHT22;49000;50.698;13.322;2022-07-10T03:16:33;10.80;99.90
62904;DHT22;49000;50.698;13.322;2022-07-10T03:18:59;10.80;99.90
62904;DHT22;49000;50.698;13.322;2022-07-10T03:21:24;10.70;99.90
62904;DHT22;49000;50.698;13.322;2022-07-10T03:23:49;10.70;99.90
62904;DHT22;49000;50.698;13.322;2022-07-10T03:26:15;10.70;99.90
62904;DHT22;49000;50.698;13.322;2022-07-10T03:28:41;10.80;99.90
62904;DHT22;49000;50.698;13.322;2022-07-10T03:31:06;10.80;99.90
62904;DHT22;49000;50.698;13.322;2022-07-10T03:33:32;10.80;99.90
62904;DHT22;49000;50.698;13.322;2022-07-10T03:35:57;10.80;99.90
62904;DHT22;49000;50.698;13.322;2022-07-10T03:38:23;10.70;99.90
62904;DHT22;49000;50.698;13.322;2022-07-10T03:40:48;10.70;99.90
62904;DHT22;49000;50.698;13.322;2022-07-10T03:43:14;10.70;99.90
62904;DHT22;49000;50.698;13.322;2022-07-10T03:45:40;10.80;99.90
62904;DHT22;49000;50.698;13.322;2022-07-10T03:48:06;10.80;99.90
62904;DHT22;49000;50.698;13.322;2022-07-10T03:50:32;10.70;99.90
62904;DHT22;49000;50.698;13.322;2022-07-10T03:52:58;10.70;99.90
62904;DHT22;49000;50.698;13.322;2022-07-10T03:55:24;10.70;99.90
62904;DHT22;49000;50.698;13.322;2022-07-10T03:57:49;10.80;99.90
62904;DHT22;49000;50.698;13.322;2022-07-10T04:00:25;10.90;99.90
62904;DHT22;49000;50.698;13.322;2022-07-10T04:02:56;10.80;99.90
62904;DHT22;49000;50.698;13.322;2022-07-10T04:05:22;10.80;99.90
62904;DHT22;49000;50.698;13.322;2022-07-10T04:07:47;10.80;99.90
62904;DHT22;49000;50.698;13.322;2022-07-10T04:10:13;10.80;99.90
62904;DHT22;49000;50.698;13.322;2022-07-10T04:12:38;10.80;99.90
62904;DHT22;49000;50.698;13.322;2022-07-10T04:15:04;10.80;99.90
62904;DHT22;49000;50.698;13.322;2022-07-10T04:17:30;10.70;99.90
62904;DHT22;49000;50.698;13.322;2022-07-10T04:19:58;10.80;99.90
62904;DHT22;49000;50.698;13.322;2022-07-10T04:22:23;10.90;99.90
62904;DHT22;49000;50.698;13.322;2022-07-10T04:24:50;10.90;99.90
62904;DHT22;49000;50.698;13.322;2022-07-10T04:27:16;10.90;99.90
62904;DHT22;49000;50.698;13.322;2022-07-10T04:29:42;10.90;99.90
62904;DHT22;49000;50.698;13.322;2022-07-10T04:32:08;10.80;99.90
62904;DHT22;49000;50.698;13.322;2022-07-10T04:34:33;10.80;99.90
62904;DHT22;49000;50.698;13.322;2022-07-10T04:36:59;10.70;99.90
62904;DHT22;49000;50.698;13.322;2022-07-10T04:39:25;10.90;99.90
62904;DHT22;49000;50.698;13.322;2022-07-10T04:41:50;10.90;99.90
62904;DHT22;49000;50.698;13.322;2022-07-10T04:44:17;10.90;99.90
62904;DHT22;49000;50.698;13.322;2022-07-10T04:46:43;10.90;99.90
62904;DHT22;49000;50.698;13.322;2022-07-10T04:49:08;10.90;99.90
62904;DHT22;49000;50.698;13.322;2022-07-10T04:51:34;10.90;99.90
62904;DHT22;49000;50.698;13.322;2022-07-10T04:54:00;11.00;99.90
62904;DHT22;49000;50.698;13.322;2022-07-10T04:56:26;10.90;99.90
62904;DHT22;49000;50.698;13.322;2022-07-10T04:58:51;10.90;99.90
62904;DHT22;49000;50.698;13.322;2022-07-10T05:01:17;10.90;99.90
62904;DHT22;49000;50.698;13.322;2022-07-10T05:03:42;11.00;99.90
62904;DHT22;49000;50.698;13.322;2022-07-10T05:06:08;11.00;99.90
62904;DHT22;49000;50.698;13.322;2022-07-10T05:08:33;11.00;99.90
62904;DHT22;49000;50.698;13.322;2022-07-10T05:10:59;10.90;99.90
62904;DHT22;49000;50.698;13.322;2022-07-10T05:13:24;11.00;99.90
62904;DHT22;49000;50.698;13.322;2022-07-10T05:15:50;11.00;99.90
62904;DHT22;49000;50.698;13.322;2022-07-10T05:18:15;10.90;99.90
62904;DHT22;49000;50.698;13.322;2022-07-10T05:20:41;10.90;99.90
62904;DHT22;49000;50.698;13.322;2022-07-10T05:23:09;10.80;99.90
62904;DHT22;49000;50.698;13.322;2022-07-10T05:25:35;10.80;99.90
62904;DHT22;49000;50.698;13.322;2022-07-10T05:28:05;10.80;99.90
62904;DHT22;49000;50.698;13.322;2022-07-10T05:30:31;10.90;99.90
62904;DHT22;49000;50.698;13.322;2022-07-10T05:32:57;11.00;99.90
62904;DHT22;49000;50.698;13.322;2022-07-10T05:35:22;11.00;99.90
62904;DHT22;49000;50.698;13.322;2022-07-10T05:37:48;11.10;99.90
62904;DHT22;49000;50.698;13.322;2022-07-10T05:40:13;11.10;99.90
62904;DHT22;49000;50.698;13.322;2022-07-10T05:42:39;11.10;99.90
62904;DHT22;49000;50.698;13.322;2022-07-10T05:45:05;11.10;99.90
62904;DHT22;49000;50.698;13.322;2022-07-10T05:47:32;10.90;99.90
62904;DHT22;49000;50.698;13.322;2022-07-10T05:49:58;11.00;99.90
62904;DHT22;49000;50.698;13.322;2022-07-10T05:52:24;11.00;99.90
62904;DHT22;49000;50.698;13.322;2022-07-10T05:54:50;11.10;99.90
62904;DHT22;49000;50.698;13.322;2022-07-10T05:57:16;11.20;99.90
62904;DHT22;49000;50.698;13.322;2022-07-10T05:59:41;11.40;99.90
62904;DHT22;49000;50.698;13.322;2022-07-10T06:02:07;11.50;99.90
62904;DHT22;49000;50.698;13.322;2022-07-10T06:04:33;11.60;99.90
62904;DHT22;49000;50.698;13.322;2022-07-10T06:06:59;11.60;99.90
62904;DHT22;49000;50.698;13.322;2022-07-10T06:09:25;11.60;99.90
62904;DHT22;49000;50.698;13.322;2022-07-10T06:11:50;11.50;99.90
62904;DHT22;49000;50.698;13.322;2022-07-10T06:14:16;11.50;99.90
62904;DHT22;49000;50.698;13.322;2022-07-10T06:16:41;11.40;99.90
62904;DHT22;49000;50.698;13.322;2022-07-10T06:19:07;11.40;99.90
62904;DHT22;49000;50.698;13.322;2022-07-10T06:21:32;11.50;99.90
62904;DHT22;49000;50.698;13.322;2022-07-10T06:23:58;11.50;99.90
62904;DHT22;49000;50.698;13.322;2022-07-10T06:26:24;11.60;99.90
62904;DHT22;49000;50.698;13.322;2022-07-10T06:28:50;11.60;99.90
62904;DHT22;49000;50.698;13.322;2022-07-10T06:31:15;11.60;99.90
62904;DHT22;49000;50.698;13.322;2022-07-10T06:33:40;11.70;99.90
62904;DHT22;49000;50.698;13.322;2022-07-10T06:36:06;11.80;99.90
62904;DHT22;49000;50.698;13.322;2022-07-10T06:38:32;11.90;99.90
62904;DHT22;49000;50.698;13.322;2022-07-10T06:40:58;12.00;99.90
62904;DHT22;49000;50.698;13.322;2022-07-10T06:43:23;12.10;99.90
62904;DHT22;49000;50.698;13.322;2022-07-10T06:45:49;12.50;99.90
62904;DHT22;49000;50.698;13.322;2022-07-10T06:48:14;12.60;99.90
62904;DHT22;49000;50.698;13.322;2022-07-10T06:50:40;12.40;99.90
62904;DHT22;49000;50.698;13.322;2022-07-10T06:53:06;12.10;99.90
62904;DHT22;49000;50.698;13.322;2022-07-10T06:55:32;11.90;99.90
62904;DHT22;49000;50.698;13.322;2022-07-10T06:57:58;11.90;99.90
62904;DHT22;49000;50.698;13.322;2022-07-10T07:00:24;12.20;99.90
62904;DHT22;49000;50.698;13.322;2022-07-10T07:02:50;12.30;99.90
62904;DHT22;49000;50.698;13.322;2022-07-10T07:05:16;12.60;99.90
62904;DHT22;49000;50.698;13.322;2022-07-10T07:07:41;12.80;99.90
62904;DHT22;49000;50.698;13.322;2022-07-10T07:10:08;12.50;99.90
62904;DHT22;49000;50.698;13.322;2022-07-10T07:12:34;12.40;99.90
62904;DHT22;49000;50.698;13.322;2022-07-10T07:15:00;12.30;99.90
62904;DHT22;49000;50.698;13.322;2022-07-10T07:17:25;12.00;99.90
62904;DHT22;49000;50.698;13.322;2022-07-10T07:19:59;11.80;99.90
62904;DHT22;49000;50.698;13.322;2022-07-10T07:22:43;11.90;99.90
62904;DHT22;49000;50.698;13.322;2022-07-10T07:25:27;11.90;99.90
62904;DHT22;49000;50.698;13.322;2022-07-10T07:27:53;12.00;99.90
62904;DHT22;49000;50.698;13.322;2022-07-10T07:30:19;12.00;99.90
62904;DHT22;49000;50.698;13.322;2022-07-10T07:32:45;12.10;99.90
62904;DHT22;49000;50.698;13.322;2022-07-10T07:35:12;12.20;99.90
62904;DHT22;49000;50.698;13.322;2022-07-10T07:37:40;12.10;99.90
62904;DHT22;49000;50.698;13.322;2022-07-10T07:40:08;12.10;99.90
62904;DHT22;49000;50.698;13.322;2022-07-10T07:42:34;12.10;99.90
62904;DHT22;49000;50.698;13.322;2022-07-10T07:45:00;12.10;99.90
62904;DHT22;49000;50.698;13.322;2022-07-10T07:47:26;12.00;99.90
62904;DHT22;49000;50.698;13.322;2022-07-10T07:49:51;11.90;99.90
62904;DHT22;49000;50.698;13.322;2022-07-10T07:52:17;12.00;99.90
62904;DHT22;49000;50.698;13.322;2022-07-10T07:54:42;12.10;99.90
62904;DHT22;49000;50.698;13.322;2022-07-10T07:57:08;12.00;99.90
62904;DHT22;49000;50.698;13.322;2022-07-10T07:59:34;12.00;99.90
62904;DHT22;49000;50.698;13.322;2022-07-10T08:02:00;12.00;99.90
62904;DHT22;49000;50.698;13.322;2022-07-10T08:04:25;12.00;99.90
62904;DHT22;49000;50.698;13.322;2022-07-10T08:06:51;12.10;99.90
62904;DHT22;49000;50.698;13.322;2022-07-10T08:09:20;12.20;99.90
62904;DHT22;49000;50.698;13.322;2022-07-10T08:11:46;12.10;99.90
62904;DHT22;49000;50.698;13.322;2022-07-10T08:14:12;12.10;99.90
62904;DHT22;49000;50.698;13.322;2022-07-10T08:16:38;11.80;99.90
62904;DHT22;49000;50.698;13.322;2022-07-10T08:19:03;11.80;99.90
62904;DHT22;49000;50.698;13.322;2022-07-10T08:21:29;11.70;99.90
62904;DHT22;49000;50.698;13.322;2022-07-10T08:23:55;11.90;99.90
62904;DHT22;49000;50.698;13.322;2022-07-10T08:26:21;11.70;99.90
62904;DHT22;49000;50.698;13.322;2022-07-10T08:28:46;11.60;99.90
62904;DHT22;49000;50.698;13.322;2022-07-10T08:31:12;11.80;99.90
62904;DHT22;49000;50.698;13.322;2022-07-10T08:33:37;12.00;99.90
62904;DHT22;49000;50.698;13.322;2022-07-10T08:36:04;12.00;99.90
62904;DHT22;49000;50.698;13.322;2022-07-10T08:38:30;11.90;99.90
62904;DHT22;49000;50.698;13.322;2022-07-10T08:40:56;12.10;99.90
62904;DHT22;49000;50.698;13.322;2022-07-10T08:43:25;11.90;99.90
62904;DHT22;49000;50.698;13.322;2022-07-10T08:45:51;11.70;99.90
62904;DHT22;49000;50.698;13.322;2022-07-10T08:48:22;11.80;99.90
62904;DHT22;49000;50.698;13.322;2022-07-10T08:50:48;11.90;99.90
62904;DHT22;49000;50.698;13.322;2022-07-10T08:53:22;11.70;99.90
62904;DHT22;49000;50.698;13.322;2022-07-10T08:55:48;11.80;99.90
62904;DHT22;49000;50.698;13.322;2022-07-10T08:58:15;11.80;99.90
62904;DHT22;49000;50.698;13.322;2022-07-10T09:00:41;12.10;99.90
62904;DHT22;49000;50.698;13.322;2022-07-10T09:03:10;12.30;99.90
62904;DHT22;49000;50.698;13.322;2022-07-10T09:05:35;12.50;99.90
62904;DHT22;49000;50.698;13.322;2022-07-10T09:08:01;12.60;99.90
62904;DHT22;49000;50.698;13.322;2022-07-10T09:10:27;12.80;99.90
62904;DHT22;49000;50.698;13.322;2022-07-10T09:12:58;12.80;99.90
62904;DHT22;49000;50.698;13.322;2022-07-10T09:15:25;13.10;99.90
62904;DHT22;49000;50.698;13.322;2022-07-10T09:17:56;13.50;99.90
62904;DHT22;49000;50.698;13.322;2022-07-10T09:22:50;13.10;99.90
62904;DHT22;49000;50.698;13.322;2022-07-10T09:25:17;13.10;99.90
62904;DHT22;49000;50.698;13.322;2022-07-10T09:27:53;12.90;99.90
62904;DHT22;49000;50.698;13.322;2022-07-10T09:30:38;12.90;99.90
62904;DHT22;49000;50.698;13.322;2022-07-10T09:33:28;13.10;99.90
62904;DHT22;49000;50.698;13.322;2022-07-10T09:36:06;13.10;99.90
62904;DHT22;49000;50.698;13.322;2022-07-10T09:41:30;13.70;99.90
62904;DHT22;49000;50.698;13.322;2022-07-10T09:44:03;13.80;99.90
62904;DHT22;49000;50.698;13.322;2022-07-10T09:46:38;14.10;99.90
62904;DHT22;49000;50.698;13.322;2022-07-10T09:49:10;14.20;99.90
62904;DHT22;49000;50.698;13.322;2022-07-10T09:51:43;14.40;99.90
62904;DHT22;49000;50.698;13.322;2022-07-10T09:54:10;14.50;99.90
62904;DHT22;49000;50.698;13.322;2022-07-10T09:56:46;14.90;99.90
62904;DHT22;49000;50.698;13.322;2022-07-10T09:59:16;14.50;99.90
62904;DHT22;49000;50.698;13.322;2022-07-10T10:01:49;14.30;99.90
62904;DHT22;49000;50.698;13.322;2022-07-10T10:04:16;14.30;99.90
62904;DHT22;49000;50.698;13.322;2022-07-10T10:06:46;14.70;99.90
62904;DHT22;49000;50.698;13.322;2022-07-10T10:09:28;14.90;99.90
62904;DHT22;49000;50.698;13.322;2022-07-10T10:11:57;15.10;99.90
62904;DHT22;49000;50.698;13.322;2022-07-10T10:14:24;15.10;99.90
62904;DHT22;49000;50.698;13.322;2022-07-10T10:16:53;15.00;99.90
62904;DHT22;49000;50.698;13.322;2022-07-10T10:19:19;14.80;99.90
62904;DHT22;49000;50.698;13.322;2022-07-10T10:22:07;14.60;99.90
62904;DHT22;49000;50.698;13.322;2022-07-10T10:24:32;14.80;99.90
62904;DHT22;49000;50.698;13.322;2022-07-10T10:26:59;15.00;99.90
62904;DHT22;49000;50.698;13.322;2022-07-10T10:29:25;15.00;99.90
62904;DHT22;49000;50.698;13.322;2022-07-10T10:31:52;15.50;99.90
62904;DHT22;49000;50.698;13.322;2022-07-10T10:34:42;15.60;99.90
62904;DHT22;49000;50.698;13.322;2022-07-10T10:39:56;15.10;99.90
62904;DHT22;49000;50.698;13.322;2022-07-10T10:42:35;14.50;99.90
62904;DHT22;49000;50.698;13.322;2022-07-10T10:45:23;14.50;99.90
62904;DHT22;49000;50.698;13.322;2022-07-10T10:48:10;14.40;99.90
62904;DHT22;49000;50.698;13.322;2022-07-10T10:50:37;14.50;99.90
62904;DHT22;49000;50.698;13.322;2022-07-10T10:53:04;14.40;99.90
62904;DHT22;49000;50.698;13.322;2022-07-10T10:55:29;14.40;99.90
62904;DHT22;49000;50.698;13.322;2022-07-10T10:58:14;14.10;99.90
62904;DHT22;49000;50.698;13.322;2022-07-10T11:00:40;14.20;99.90
62904;DHT22;49000;50.698;13.322;2022-07-10T11:03:21;14.10;99.90
62904;DHT22;49000;50.698;13.322;2022-07-10T11:05:47;14.60;99.90
62904;DHT22;49000;50.698;13.322;2022-07-10T11:08:14;14.90;99.90
62904;DHT22;49000;50.698;13.322;2022-07-10T11:10:48;15.80;99.90
62904;DHT22;49000;50.698;13.322;2022-07-10T11:13:18;16.40;99.90
62904;DHT22;49000;50.698;13.322;2022-07-10T11:15:48;16.50;99.90
62904;DHT22;49000;50.698;13.322;2022-07-10T11:18:18;16.50;80.00
62904;DHT22;49000;50.698;13.322;2022-07-10T11:20:46;16.10;81.00
62904;DHT22;49000;50.698;13.322;2022-07-10T11:25:53;15.40;62.40
62904;DHT22;49000;50.698;13.322;2022-07-10T11:28:40;15.30;79.30
62904;DHT22;49000;50.698;13.322;2022-07-10T11:31:06;15.30;79.60
62904;DHT22;49000;50.698;13.322;2022-07-10T11:33:42;15.60;78.70
62904;DHT22;49000;50.698;13.322;2022-07-10T11:36:14;15.40;79.60
62904;DHT22;49000;50.698;13.322;2022-07-10T11:38:41;16.00;84.70
62904;DHT22;49000;50.698;13.322;2022-07-10T11:41:18;16.30;87.40
62904;DHT22;49000;50.698;13.322;2022-07-10T11:43:51;16.90;78.20
62904;DHT22;49000;50.698;13.322;2022-07-10T11:46:19;17.00;68.10
62904;DHT22;49000;50.698;13.322;2022-07-10T11:48:46;17.20;66.00
62904;DHT22;49000;50.698;13.322;2022-07-10T11:51:23;17.40;49.80
62904;DHT22;49000;50.698;13.322;2022-07-10T11:54:10;17.10;50.00
62904;DHT22;49000;50.698;13.322;2022-07-10T11:56:39;17.10;64.50
62904;DHT22;49000;50.698;13.322;2022-07-10T11:59:11;16.80;44.20
62904;DHT22;49000;50.698;13.322;2022-07-10T12:01:48;16.40;54.50
62904;DHT22;49000;50.698;13.322;2022-07-10T12:04:16;16.50;58.20
62904;DHT22;49000;50.698;13.322;2022-07-10T12:06:43;16.80;62.50
62904;DHT22;49000;50.698;13.322;2022-07-10T12:09:14;17.20;59.50
62904;DHT22;49000;50.698;13.322;2022-07-10T12:11:41;17.60;41.50
62904;DHT22;49000;50.698;13.322;2022-07-10T12:14:14;17.60;46.60
62904;DHT22;49000;50.698;13.322;2022-07-10T12:16:41;18.10;46.40
62904;DHT22;49000;50.698;13.322;2022-07-10T12:19:08;19.10;27.40
62904;DHT22;49000;50.698;13.322;2022-07-10T12:21:35;19.10;27.00
62904;DHT22;49000;50.698;13.322;2022-07-10T12:24:00;18.40;22.20
62904;DHT22;49000;50.698;13.322;2022-07-10T12:26:38;17.70;25.00
62904;DHT22;49000;50.698;13.322;2022-07-10T12:29:04;16.90;27.30
62904;DHT22;49000;50.698;13.322;2022-07-10T12:31:31;17.20;40.00
62904;DHT22;49000;50.698;13.322;2022-07-10T12:33:59;17.70;28.10
62904;DHT22;49000;50.698;13.322;2022-07-10T12:36:41;17.70;19.60
62904;DHT22;49000;50.698;13.322;2022-07-10T12:39:07;18.10;22.00
62904;DHT22;49000;50.698;13.322;2022-07-10T12:41:33;18.00;16.80
62904;DHT22;49000;50.698;13.322;2022-07-10T12:43:58;17.60;20.10
62904;DHT22;49000;50.698;13.322;2022-07-10T12:46:24;17.40;16.50
62904;DHT22;49000;50.698;13.322;2022-07-10T12:49:03;17.40;17.30
62904;DHT22;49000;50.698;13.322;2022-07-10T12:51:48;17.50;15.20
62904;DHT22;49000;50.698;13.322;2022-07-10T12:54:36;17.70;17.00
62904;DHT22;49000;50.698;13.322;2022-07-10T12:57:05;17.30;18.40
62904;DHT22;49000;50.698;13.322;2022-07-10T12:59:35;17.10;19.30
62904;DHT22;49000;50.698;13.322;2022-07-10T13:02:15;17.70;19.80
62904;DHT22;49000;50.698;13.322;2022-07-10T13:04:52;18.20;10.50
62904;DHT22;49000;50.698;13.322;2022-07-10T13:07:17;18.70;16.70
62904;DHT22;49000;50.698;13.322;2022-07-10T13:09:43;18.80;6.30
62904;DHT22;49000;50.698;13.322;2022-07-10T13:12:09;19.40;7.70
62904;DHT22;49000;50.698;13.322;2022-07-10T13:14:35;19.50;4.50
62904;DHT22;49000;50.698;13.322;2022-07-10T13:17:00;20.40;4.60
62904;DHT22;49000;50.698;13.322;2022-07-10T13:19:26;19.60;4.70
62904;DHT22;49000;50.698;13.322;2022-07-10T13:21:51;19.40;4.50
62904;DHT22;49000;50.698;13.322;2022-07-10T13:24:17;19.50;7.60
62904;DHT22;49000;50.698;13.322;2022-07-10T13:26:42;19.20;8.30
62904;DHT22;49000;50.698;13.322;2022-07-10T13:29:08;19.00;8.80
62904;DHT22;49000;50.698;13.322;2022-07-10T13:31:33;18.60;11.30
62904;DHT22;49000;50.698;13.322;2022-07-10T13:33:59;18.00;13.60
62904;DHT22;49000;50.698;13.322;2022-07-10T13:36:24;17.70;10.40
62904;DHT22;49000;50.698;13.322;2022-07-10T13:38:50;17.50;11.10
62904;DHT22;49000;50.698;13.322;2022-07-10T13:41:18;18.00;16.50
62904;DHT22;49000;50.698;13.322;2022-07-10T13:43:43;17.80;15.30
62904;DHT22;49000;50.698;13.322;2022-07-10T13:46:09;18.70;11.80
62904;DHT22;49000;50.698;13.322;2022-07-10T13:48:34;19.40;15.70
62904;DHT22;49000;50.698;13.322;2022-07-10T13:51:00;20.20;13.00
62904;DHT22;49000;50.698;13.322;2022-07-10T13:53:25;20.40;1.90
62904;DHT22;49000;50.698;13.322;2022-07-10T13:55:52;19.80;1.50
62904;DHT22;49000;50.698;13.322;2022-07-10T13:58:18;20.00;5.40
62904;DHT22;49000;50.698;13.322;2022-07-10T14:00:45;19.60;5.40
62904;DHT22;49000;50.698;13.322;2022-07-10T14:03:11;19.80;8.00
62904;DHT22;49000;50.698;13.322;2022-07-10T14:05:36;19.30;4.10
62904;DHT22;49000;50.698;13.322;2022-07-10T14:08:02;18.80;8.20
62904;DHT22;49000;50.698;13.322;2022-07-10T14:10:28;18.50;9.00
62904;DHT22;49000;50.698;13.322;2022-07-10T14:12:54;18.80;9.00
62904;DHT22;49000;50.698;13.322;2022-07-10T14:15:20;19.10;9.00
62904;DHT22;49000;50.698;13.322;2022-07-10T14:17:46;19.20;9.40
62904;DHT22;49000;50.698;13.322;2022-07-10T14:20:12;18.90;7.60
62904;DHT22;49000;50.698;13.322;2022-07-10T14:22:37;19.10;10.30
62904;DHT22;49000;50.698;13.322;2022-07-10T14:25:05;19.60;9.20
62904;DHT22;49000;50.698;13.322;2022-07-10T14:27:30;19.70;4.00
62904;DHT22;49000;50.698;13.322;2022-07-10T14:29:57;19.60;1.40
62904;DHT22;49000;50.698;13.322;2022-07-10T14:32:23;19.40;6.10
62904;DHT22;49000;50.698;13.322;2022-07-10T14:34:48;19.70;7.40
62904;DHT22;49000;50.698;13.322;2022-07-10T14:37:14;19.70;4.70
62904;DHT22;49000;50.698;13.322;2022-07-10T14:39:39;19.10;5.60
62904;DHT22;49000;50.698;13.322;2022-07-10T14:42:06;18.90;6.30
62904;DHT22;49000;50.698;13.322;2022-07-10T14:44:33;18.90;6.80
62904;DHT22;49000;50.698;13.322;2022-07-10T14:46:58;18.40;5.90
62904;DHT22;49000;50.698;13.322;2022-07-10T14:49:23;18.40;5.60
62904;DHT22;49000;50.698;13.322;2022-07-10T14:51:49;18.40;10.40
62904;DHT22;49000;50.698;13.322;2022-07-10T14:54:15;18.50;4.00
62904;DHT22;49000;50.698;13.322;2022-07-10T14:56:40;19.00;6.60
62904;DHT22;49000;50.698;13.322;2022-07-10T14:59:08;19.10;1.50
62904;DHT22;49000;50.698;13.322;2022-07-10T15:01:33;19.20;3.20
62904;DHT22;49000;50.698;13.322;2022-07-10T15:03:59;19.00;2.40
62904;DHT22;49000;50.698;13.322;2022-07-10T15:06:24;18.80;4.80
62904;DHT22;49000;50.698;13.322;2022-07-10T15:08:50;18.90;6.40
62904;DHT22;49000;50.698;13.322;2022-07-10T15:11:17;19.10;3.20
62904;DHT22;49000;50.698;13.322;2022-07-10T15:13:42;18.80;4.40
62904;DHT22;49000;50.698;13.322;2022-07-10T15:16:07;19.00;3.80
62904;DHT22;49000;50.698;13.322;2022-07-10T15:18:33;18.80;4.80
62904;DHT22;49000;50.698;13.322;2022-07-10T15:20:59;18.20;6.10
62904;DHT22;49000;50.698;13.322;2022-07-10T15:23:24;17.80;5.70
62904;DHT22;49000;50.698;13.322;2022-07-10T15:25:51;17.90;7.30
62904;DHT22;49000;50.698;13.322;2022-07-10T15:28:16;17.60;8.20
62904;DHT22;49000;50.698;13.322;2022-07-10T15:30:42;18.00;8.90